sensor_id;sensor_type;location;lat;lon;timestamp;P1;durP1;ratioP1;P2;durP2;ratioP2
9102;SDS011;4587;51.434;6.788;2023-07-20T00:00:44;6.60;;;3.50;;
9102;SDS011;4587;51.434;6.788;2023-07-20T00:03:13;9.03;;;3.93;;
9102;SDS011;4587;51.434;6.788;2023-07-20T00:05:43;5.03;;;3.37;;
9102;SDS011;4587;51.434;6.788;2023-07-20T00:08:09;5.87;;;3.77;;
9102;SDS011;4587;51.434;6.788;2023-07-20T00:10:35;4.23;;;3.23;;
9102;SDS011;4587;51.434;6.788;2023-07-20T00:13:00;6.13;;;3.27;;
9102;SDS011;4587;51.434;6.788;2023-07-20T00:15:26;5.80;;;3.40;;
9102;SDS011;4587;51.434;6.788;2023-07-20T00:17:52;9.37;;;4.20;;
9102;SDS011;4587;51.434;6.788;2023-07-20T00:20:17;6.23;;;3.50;;
9102;SDS011;4587;51.434;6.788;2023-07-20T00:22:43;7.47;;;3.63;;
9102;SDS011;4587;51.434;6.788;2023-07-20T00:25:09;5.43;;;3.23;;
9102;SDS011;4587;51.434;6.788;2023-07-20T00:27:36;6.20;;;3.60;;
9102;SDS011;4587;51.434;6.788;2023-07-20T00:30:03;8.50;;;3.87;;
9102;SDS011;4587;51.434;6.788;2023-07-20T00:32:29;6.20;;;3.80;;
9102;SDS011;4587;51.434;6.788;2023-07-20T00:34:55;6.90;;;3.90;;
9102;SDS011;4587;51.434;6.788;2023-07-20T00:37:20;5.07;;;3.50;;
9102;SDS011;4587;51.434;6.788;2023-07-20T00:39:46;4.47;;;3.80;;
9102;SDS011;4587;51.434;6.788;2023-07-20T00:42:11;5.97;;;3.53;;
9102;SDS011;4587;51.434;6.788;2023-07-20T00:44:37;4.27;;;3.40;;
9102;SDS011;4587;51.434;6.788;2023-07-20T00:47:03;6.53;;;3.80;;
9102;SDS011;4587;51.434;6.788;2023-07-20T00:49:29;7.20;;;3.73;;
9102;SDS011;4587;51.434;6.788;2023-07-20T00:51:55;7.97;;;3.90;;
9102;SDS011;4587;51.434;6.788;2023-07-20T00:54:21;6.30;;;3.40;;
9102;SDS011;4587;51.434;6.788;2023-07-20T00:56:46;12.20;;;3.93;;
9102;SDS011;4587;51.434;6.788;2023-07-20T00:59:12;6.77;;;3.30;;
9102;SDS011;4587;51.434;6.788;2023-07-20T01:01:38;5.13;;;3.40;;
9102;SDS011;4587;51.434;6.788;2023-07-20T01:04:04;4.67;;;3.17;;
9102;SDS011;4587;51.434;6.788;2023-07-20T01:06:36;6.80;;;3.30;;
9102;SDS011;4587;51.434;6.788;2023-07-20T01:09:19;4.50;;;3.30;;
9102;SDS011;4587;51.434;6.788;2023-07-20T01:11:50;5.70;;;3.13;;
9102;SDS011;4587;51.434;6.788;2023-07-20T01:14:25;5.80;;;3.50;;
9102;SDS011;4587;51.434;6.788;2023-07-20T01:16:51;5.20;;;3.80;;
9102;SDS011;4587;51.434;6.788;2023-07-20T01:19:17;6.23;;;3.90;;
9102;SDS011;4587;51.434;6.788;2023-07-20T01:21:57;6.93;;;3.70;;
9102;SDS011;4587;51.434;6.788;2023-07-20T01:32:45;6.37;;;3.90;;
9102;SDS011;4587;51.434;6.788;2023-07-20T01:35:13;6.93;;;4.00;;
9102;SDS011;4587;51.434;6.788;2023-07-20T01:37:41;6.40;;;4.20;;
9102;SDS011;4587;51.434;6.788;2023-07-20T01:40:09;5.73;;;4.10;;
9102;SDS011;4587;51.434;6.788;2023-07-20T01:42:35;4.97;;;4.00;;
9102;SDS011;4587;51.434;6.788;2023-07-20T01:45:01;5.30;;;4.13;;
9102;SDS011;4587;51.434;6.788;2023-07-20T01:47:27;8.60;;;4.47;;
9102;SDS011;4587;51.434;6.788;2023-07-20T01:49:53;6.93;;;4.60;;
9102;SDS011;4587;51.434;6.788;2023-07-20T01:52:18;8.57;;;4.87;;
9102;SDS011;4587;51.434;6.788;2023-07-20T01:54:44;6.00;;;4.30;;
9102;SDS011;4587;51.434;6.788;2023-07-20T01:57:09;6.47;;;4.57;;
9102;SDS011;4587;51.434;6.788;2023-07-20T01:59:35;6.53;;;4.20;;
9102;SDS011;4587;51.434;6.788;2023-07-20T02:02:00;7.70;;;4.80;;
9102;SDS011;4587;51.434;6.788;2023-07-20T02:04:26;5.33;;;4.37;;
9102;SDS011;4587;51.434;6.788;2023-07-20T02:06:51;8.13;;;4.63;;
9102;SDS011;4587;51.434;6.788;2023-07-20T02:09:17;5.93;;;4.50;;
9102;SDS011;4587;51.434;6.788;2023-07-20T02:11:42;7.10;;;5.00;;
9102;SDS011;4587;51.434;6.788;2023-07-20T02:14:08;7.83;;;4.60;;
9102;SDS011;4587;51.434;6.788;2023-07-20T02:16:33;5.67;;;4.70;;
9102;SDS011;4587;51.434;6.788;2023-07-20T02:18:59;8.07;;;5.30;;
9102;SDS011;4587;51.434;6.788;2023-07-20T02:21:25;6.67;;;5.03;;
9102;SDS011;4587;51.434;6.788;2023-07-20T02:23:50;10.70;;;6.23;;
9102;SDS011;4587;51.434;6.788;2023-07-20T02:26:16;8.83;;;5.47;;
9102;SDS011;4587;51.434;6.788;2023-07-20T02:28:42;8.33;;;5.53;;
9102;SDS011;4587;51.434;6.788;2023-07-20T02:31:07;10.40;;;5.90;;
9102;SDS011;4587;51.434;6.788;2023-07-20T02:33:33;9.73;;;6.50;;
9102;SDS011;4587;51.434;6.788;2023-07-20T02:35:58;7.13;;;5.40;;
9102;SDS011;4587;51.434;6.788;2023-07-20T02:38:24;10.97;;;6.30;;
9102;SDS011;4587;51.434;6.788;2023-07-20T02:40:49;8.50;;;6.03;;
9102;SDS011;4587;51.434;6.788;2023-07-20T02:43:15;10.00;;;6.37;;
9102;SDS011;4587;51.434;6.788;2023-07-20T02:45:41;10.13;;;7.00;;
9102;SDS011;4587;51.434;6.788;2023-07-20T02:48:07;9.53;;;7.80;;
9102;SDS011;4587;51.434;6.788;2023-07-20T02:50:33;10.63;;;7.50;;
9102;SDS011;4587;51.434;6.788;2023-07-20T02:53:00;11.50;;;8.20;;
9102;SDS011;4587;51.434;6.788;2023-07-20T02:55:25;10.27;;;7.50;;
9102;SDS011;4587;51.434;6.788;2023-07-20T02:57:51;12.63;;;8.67;;
9102;SDS011;4587;51.434;6.788;2023-07-20T03:00:16;10.63;;;8.73;;
9102;SDS011;4587;51.434;6.788;2023-07-20T03:02:44;11.20;;;8.50;;
9102;SDS011;4587;51.434;6.788;2023-07-20T03:05:12;11.33;;;8.00;;
9102;SDS011;4587;51.434;6.788;2023-07-20T03:07:38;8.77;;;7.13;;
9102;SDS011;4587;51.434;6.788;2023-07-20T03:10:04;11.43;;;8.50;;
9102;SDS011;4587;51.434;6.788;2023-07-20T03:12:32;10.27;;;8.10;;
9102;SDS011;4587;51.434;6.788;2023-07-20T03:14:59;8.30;;;7.33;;
9102;SDS011;4587;51.434;6.788;2023-07-20T03:17:24;11.97;;;7.80;;
9102;SDS011;4587;51.434;6.788;2023-07-20T03:19:50;9.67;;;7.43;;
9102;SDS011;4587;51.434;6.788;2023-07-20T03:22:15;9.60;;;7.23;;
9102;SDS011;4587;51.434;6.788;2023-07-20T03:24:41;8.80;;;7.80;;
9102;SDS011;4587;51.434;6.788;2023-07-20T03:27:06;8.23;;;7.07;;
9102;SDS011;4587;51.434;6.788;2023-07-20T03:29:32;11.07;;;7.67;;
9102;SDS011;4587;51.434;6.788;2023-07-20T03:31:58;8.03;;;7.23;;
9102;SDS011;4587;51.434;6.788;2023-07-20T03:34:24;10.67;;;7.40;;
9102;SDS011;4587;51.434;6.788;2023-07-20T03:36:50;9.47;;;7.90;;
9102;SDS011;4587;51.434;6.788;2023-07-20T03:39:15;8.97;;;7.73;;
9102;SDS011;4587;51.434;6.788;2023-07-20T03:41:41;10.53;;;8.03;;
9102;SDS011;4587;51.434;6.788;2023-07-20T03:44:08;12.33;;;7.83;;
9102;SDS011;4587;51.434;6.788;2023-07-20T03:46:33;10.50;;;8.30;;
9102;SDS011;4587;51.434;6.788;2023-07-20T03:48:59;10.73;;;8.47;;
9102;SDS011;4587;51.434;6.788;2023-07-20T03:51:25;13.67;;;9.57;;
9102;SDS011;4587;51.434;6.788;2023-07-20T03:53:51;12.57;;;9.90;;
9102;SDS011;4587;51.434;6.788;2023-07-20T03:56:17;11.97;;;9.53;;
9102;SDS011;4587;51.434;6.788;2023-07-20T03:58:42;12.80;;;9.93;;
9102;SDS011;4587;51.434;6.788;2023-07-20T04:01:08;12.23;;;10.00;;
9102;SDS011;4587;51.434;6.788;2023-07-20T04:03:34;12.53;;;10.47;;
9102;SDS011;4587;51.434;6.788;2023-07-20T04:06:00;13.77;;;10.43;;
9102;SDS011;4587;51.434;6.788;2023-07-20T04:08:26;14.27;;;12.17;;
9102;SDS011;4587;51.434;6.788;2023-07-20T04:10:52;15.33;;;12.50;;
9102;SDS011;4587;51.434;6.788;2023-07-20T04:13:17;15.70;;;12.77;;
9102;SDS011;4587;51.434;6.788;2023-07-20T04:15:43;12.73;;;11.43;;
9102;SDS011;4587;51.434;6.788;2023-07-20T04:18:09;19.00;;;12.97;;
9102;SDS011;4587;51.434;6.788;2023-07-20T04:20:35;15.93;;;14.43;;
9102;SDS011;4587;51.434;6.788;2023-07-20T04:23:00;17.87;;;14.73;;
9102;SDS011;4587;51.434;6.788;2023-07-20T04:25:26;16.73;;;13.40;;
9102;SDS011;4587;51.434;6.788;2023-07-20T04:27:51;16.60;;;14.97;;
9102;SDS011;4587;51.434;6.788;2023-07-20T04:30:18;15.20;;;13.57;;
9102;SDS011;4587;51.434;6.788;2023-07-20T04:32:47;22.17;;;16.13;;
9102;SDS011;4587;51.434;6.788;2023-07-20T04:35:17;17.97;;;15.90;;
9102;SDS011;4587;51.434;6.788;2023-07-20T04:38:03;18.07;;;15.73;;
9102;SDS011;4587;51.434;6.788;2023-07-20T04:40:28;18.93;;;16.00;;
9102;SDS011;4587;51.434;6.788;2023-07-20T04:42:54;18.13;;;16.17;;
9102;SDS011;4587;51.434;6.788;2023-07-20T04:45:19;20.07;;;16.10;;
9102;SDS011;4587;51.434;6.788;2023-07-20T04:47:47;15.80;;;14.10;;
9102;SDS011;4587;51.434;6.788;2023-07-20T04:50:15;17.30;;;15.50;;
9102;SDS011;4587;51.434;6.788;2023-07-20T04:52:40;17.97;;;15.70;;
9102;SDS011;4587;51.434;6.788;2023-07-20T04:55:06;16.63;;;14.80;;
9102;SDS011;4587;51.434;6.788;2023-07-20T04:57:32;16.20;;;14.50;;
9102;SDS011;4587;51.434;6.788;2023-07-20T04:59:57;17.00;;;15.23;;
9102;SDS011;4587;51.434;6.788;2023-07-20T05:02:23;17.53;;;14.37;;
9102;SDS011;4587;51.434;6.788;2023-07-20T05:04:48;18.03;;;13.70;;
9102;SDS011;4587;51.434;6.788;2023-07-20T05:07:14;13.70;;;12.00;;
9102;SDS011;4587;51.434;6.788;2023-07-20T05:09:40;19.77;;;13.20;;
9102;SDS011;4587;51.434;6.788;2023-07-20T05:12:05;18.80;;;13.97;;
9102;SDS011;4587;51.434;6.788;2023-07-20T05:14:32;19.13;;;12.70;;
9102;SDS011;4587;51.434;6.788;2023-07-20T05:16:58;13.97;;;12.40;;
9102;SDS011;4587;51.434;6.788;2023-07-20T05:19:24;14.87;;;11.80;;
9102;SDS011;4587;51.434;6.788;2023-07-20T05:21:50;14.37;;;11.57;;
9102;SDS011;4587;51.434;6.788;2023-07-20T05:24:16;13.90;;;12.47;;
9102;SDS011;4587;51.434;6.788;2023-07-20T05:26:41;13.77;;;11.33;;
9102;SDS011;4587;51.434;6.788;2023-07-20T05:29:07;10.33;;;9.00;;
9102;SDS011;4587;51.434;6.788;2023-07-20T05:31:32;6.97;;;6.37;;
9102;SDS011;4587;51.434;6.788;2023-07-20T05:33:58;6.63;;;6.03;;
9102;SDS011;4587;51.434;6.788;2023-07-20T05:36:24;7.07;;;5.93;;
9102;SDS011;4587;51.434;6.788;2023-07-20T05:38:49;7.07;;;5.33;;
9102;SDS011;4587;51.434;6.788;2023-07-20T05:41:15;6.37;;;5.00;;
9102;SDS011;4587;51.434;6.788;2023-07-20T05:43:40;5.10;;;4.60;;
9102;SDS011;4587;51.434;6.788;2023-07-20T05:46:07;5.97;;;4.60;;
9102;SDS011;4587;51.434;6.788;2023-07-20T05:48:33;6.13;;;4.73;;
9102;SDS011;4587;51.434;6.788;2023-07-20T05:50:58;9.33;;;5.20;;
9102;SDS011;4587;51.434;6.788;2023-07-20T05:53:24;5.63;;;4.67;;
9102;SDS011;4587;51.434;6.788;2023-07-20T05:55:53;7.30;;;5.00;;
9102;SDS011;4587;51.434;6.788;2023-07-20T05:58:19;6.27;;;4.57;;
9102;SDS011;4587;51.434;6.788;2023-07-20T06:00:47;6.50;;;4.30;;
9102;SDS011;4587;51.434;6.788;2023-07-20T06:03:14;6.53;;;4.67;;
9102;SDS011;4587;51.434;6.788;2023-07-20T06:05:41;5.57;;;4.60;;
9102;SDS011;4587;51.434;6.788;2023-07-20T06:08:07;7.10;;;4.70;;
9102;SDS011;4587;51.434;6.788;2023-07-20T06:10:32;9.03;;;6.30;;
9102;SDS011;4587;51.434;6.788;2023-07-20T06:12:58;8.30;;;5.80;;
9102;SDS011;4587;51.434;6.788;2023-07-20T06:15:24;8.17;;;6.00;;
9102;SDS011;4587;51.434;6.788;2023-07-20T06:17:51;6.90;;;6.30;;
9102;SDS011;4587;51.434;6.788;2023-07-20T06:20:19;8.77;;;5.07;;
9102;SDS011;4587;51.434;6.788;2023-07-20T06:22:44;7.07;;;4.90;;
9102;SDS011;4587;51.434;6.788;2023-07-20T06:25:10;5.70;;;4.90;;
9102;SDS011;4587;51.434;6.788;2023-07-20T06:27:36;8.90;;;6.83;;
9102;SDS011;4587;51.434;6.788;2023-07-20T06:30:01;7.90;;;7.10;;
9102;SDS011;4587;51.434;6.788;2023-07-20T06:32:27;7.53;;;6.53;;
9102;SDS011;4587;51.434;6.788;2023-07-20T06:34:53;10.03;;;6.83;;
9102;SDS011;4587;51.434;6.788;2023-07-20T06:37:18;8.97;;;8.07;;
9102;SDS011;4587;51.434;6.788;2023-07-20T06:39:45;10.60;;;9.50;;
9102;SDS011;4587;51.434;6.788;2023-07-20T06:42:11;13.87;;;12.33;;
9102;SDS011;4587;51.434;6.788;2023-07-20T06:44:36;18.10;;;16.30;;
9102;SDS011;4587;51.434;6.788;2023-07-20T06:47:02;19.87;;;16.50;;
9102;SDS011;4587;51.434;6.788;2023-07-20T06:49:28;19.63;;;17.67;;
9102;SDS011;4587;51.434;6.788;2023-07-20T06:51:54;19.83;;;17.93;;
9102;SDS011;4587;51.434;6.788;2023-07-20T06:54:19;19.67;;;17.77;;
9102;SDS011;4587;51.434;6.788;2023-07-20T06:56:45;18.93;;;16.93;;
9102;SDS011;4587;51.434;6.788;2023-07-20T06:59:11;17.37;;;15.57;;
9102;SDS011;4587;51.434;6.788;2023-07-20T07:01:36;16.77;;;15.13;;
9102;SDS011;4587;51.434;6.788;2023-07-20T07:04:02;15.33;;;13.73;;
9102;SDS011;4587;51.434;6.788;2023-07-20T07:06:28;14.50;;;13.03;;
9102;SDS011;4587;51.434;6.788;2023-07-20T07:08:54;13.07;;;11.87;;
9102;SDS011;4587;51.434;6.788;2023-07-20T07:11:20;11.87;;;10.63;;
9102;SDS011;4587;51.434;6.788;2023-07-20T07:13:46;12.07;;;10.90;;
9102;SDS011;4587;51.434;6.788;2023-07-20T07:16:14;10.27;;;9.10;;
9102;SDS011;4587;51.434;6.788;2023-07-20T07:18:43;8.63;;;7.83;;
9102;SDS011;4587;51.434;6.788;2023-07-20T07:21:09;10.03;;;9.03;;
9102;SDS011;4587;51.434;6.788;2023-07-20T07:23:35;9.60;;;8.60;;
9102;SDS011;4587;51.434;6.788;2023-07-20T07:26:00;10.07;;;8.80;;
9102;SDS011;4587;51.434;6.788;2023-07-20T07:28:26;7.90;;;7.07;;
9102;SDS011;4587;51.434;6.788;2023-07-20T07:30:53;7.70;;;7.00;;
9102;SDS011;4587;51.434;6.788;2023-07-20T07:33:20;8.33;;;6.60;;
9102;SDS011;4587;51.434;6.788;2023-07-20T07:35:45;7.47;;;6.37;;
9102;SDS011;4587;51.434;6.788;2023-07-20T07:38:11;7.37;;;6.67;;
9102;SDS011;4587;51.434;6.788;2023-07-20T07:40:37;7.07;;;5.43;;
9102;SDS011;4587;51.434;6.788;2023-07-20T07:43:02;11.70;;;7.40;;
9102;SDS011;4587;51.434;6.788;2023-07-20T07:45:28;6.97;;;6.27;;
9102;SDS011;4587;51.434;6.788;2023-07-20T07:47:54;6.83;;;5.07;;
9102;SDS011;4587;51.434;6.788;2023-07-20T07:50:19;4.20;;;3.63;;
9102;SDS011;4587;51.434;6.788;2023-07-20T07:52:45;5.17;;;3.37;;
9102;SDS011;4587;51.434;6.788;2023-07-20T07:55:11;6.17;;;3.50;;
9102;SDS011;4587;51.434;6.788;2023-07-20T07:57:37;7.75;;;5.45;;
9102;SDS011;4587;51.434;6.788;2023-07-20T08:00:02;9.15;;;4.95;;
9102;SDS011;4587;51.434;6.788;2023-07-20T08:02:29;5.78;;;5.18;;
9102;SDS011;4587;51.434;6.788;2023-07-20T08:04:54;9.73;;;6.70;;
9102;SDS011;4587;51.434;6.788;2023-07-20T08:07:20;6.83;;;5.63;;
9102;SDS011;4587;51.434;6.788;2023-07-20T08:09:46;5.28;;;4.78;;
9102;SDS011;4587;51.434;6.788;2023-07-20T08:12:11;6.97;;;6.38;;
9102;SDS011;4587;51.434;6.788;2023-07-20T08:14:38;7.93;;;6.22;;
9102;SDS011;4587;51.434;6.788;2023-07-20T08:17:03;11.00;;;9.70;;
9102;SDS011;4587;51.434;6.788;2023-07-20T08:19:29;7.18;;;6.47;;
9102;SDS011;4587;51.434;6.788;2023-07-20T08:21:55;8.40;;;7.00;;
9102;SDS011;4587;51.434;6.788;2023-07-20T08:24:20;9.95;;;7.00;;
9102;SDS011;4587;51.434;6.788;2023-07-20T08:26:46;8.02;;;6.55;;
9102;SDS011;4587;51.434;6.788;2023-07-20T08:29:11;9.90;;;6.63;;
9102;SDS011;4587;51.434;6.788;2023-07-20T08:31:37;8.60;;;6.10;;
9102;SDS011;4587;51.434;6.788;2023-07-20T08:34:02;5.77;;;3.43;;
9102;SDS011;4587;51.434;6.788;2023-07-20T08:36:28;4.50;;;3.10;;
9102;SDS011;4587;51.434;6.788;2023-07-20T08:38:53;3.67;;;2.70;;
9102;SDS011;4587;51.434;6.788;2023-07-20T08:41:19;3.90;;;2.30;;
9102;SDS011;4587;51.434;6.788;2023-07-20T08:43:45;4.07;;;3.30;;
9102;SDS011;4587;51.434;6.788;2023-07-20T08:46:12;3.77;;;3.47;;
9102;SDS011;4587;51.434;6.788;2023-07-20T08:48:38;4.77;;;3.53;;
9102;SDS011;4587;51.434;6.788;2023-07-20T08:51:05;4.00;;;3.70;;
9102;SDS011;4587;51.434;6.788;2023-07-20T08:53:31;6.33;;;4.60;;
9102;SDS011;4587;51.434;6.788;2023-07-20T08:55:58;4.20;;;3.70;;
9102;SDS011;4587;51.434;6.788;2023-07-20T08:58:25;4.13;;;3.17;;
9102;SDS011;4587;51.434;6.788;2023-07-20T09:00:53;6.40;;;3.40;;
9102;SDS011;4587;51.434;6.788;2023-07-20T09:03:20;3.37;;;2.67;;
9102;SDS011;4587;51.434;6.788;2023-07-20T09:05:46;3.93;;;2.47;;
9102;SDS011;4587;51.434;6.788;2023-07-20T09:08:11;3.60;;;2.30;;
9102;SDS011;4587;51.434;6.788;2023-07-20T09:10:37;4.83;;;2.20;;
9102;SDS011;4587;51.434;6.788;2023-07-20T09:13:03;4.57;;;2.20;;
9102;SDS011;4587;51.434;6.788;2023-07-20T09:15:28;2.70;;;1.90;;
9102;SDS011;4587;51.434;6.788;2023-07-20T09:17:55;2.50;;;1.60;;
9102;SDS011;4587;51.434;6.788;2023-07-20T09:20:20;3.47;;;1.77;;
9102;SDS011;4587;51.434;6.788;2023-07-20T09:22:46;2.30;;;1.40;;
9102;SDS011;4587;51.434;6.788;2023-07-20T09:27:39;3.03;;;1.30;;
9102;SDS011;4587;51.434;6.788;2023-07-20T09:30:09;2.90;;;1.00;;
9102;SDS011;4587;51.434;6.788;2023-07-20T09:32:43;2.80;;;1.50;;
9102;SDS011;4587;51.434;6.788;2023-07-20T09:37:39;2.50;;;1.87;;
9102;SDS011;4587;51.434;6.788;2023-07-20T09:40:12;3.23;;;1.70;;
9102;SDS011;4587;51.434;6.788;2023-07-20T09:42:41;4.73;;;1.57;;
9102;SDS011;4587;51.434;6.788;2023-07-20T09:45:07;2.17;;;1.60;;
9102;SDS011;4587;51.434;6.788;2023-07-20T09:47:35;2.13;;;1.27;;
9102;SDS011;4587;51.434;6.788;2023-07-20T09:50:03;2.07;;;1.20;;
9102;SDS011;4587;51.434;6.788;2023-07-20T09:52:29;4.33;;;1.20;;
9102;SDS011;4587;51.434;6.788;2023-07-20T09:54:55;2.67;;;1.30;;
9102;SDS011;4587;51.434;6.788;2023-07-20T09:57:22;4.93;;;1.50;;
9102;SDS011;4587;51.434;6.788;2023-07-20T09:59:48;4.65;;;1.52;;
9102;SDS011;4587;51.434;6.788;2023-07-20T10:02:20;3.83;;;1.60;;
9102;SDS011;4587;51.434;6.788;2023-07-20T10:04:51;3.00;;;1.83;;
9102;SDS011;4587;51.434;6.788;2023-07-20T10:07:18;3.47;;;2.40;;
9102;SDS011;4587;51.434;6.788;2023-07-20T10:09:48;3.22;;;2.40;;
9102;SDS011;4587;51.434;6.788;2023-07-20T10:12:16;3.90;;;1.90;;
9102;SDS011;4587;51.434;6.788;2023-07-20T10:14:43;2.43;;;1.50;;
9102;SDS011;4587;51.434;6.788;2023-07-20T10:17:15;2.55;;;1.17;;
9102;SDS011;4587;51.434;6.788;2023-07-20T10:19:43;1.90;;;0.80;;
9102;SDS011;4587;51.434;6.788;2023-07-20T10:22:14;2.57;;;0.80;;
9102;SDS011;4587;51.434;6.788;2023-07-20T10:24:48;2.20;;;0.82;;
9102;SDS011;4587;51.434;6.788;2023-07-20T10:27:15;3.22;;;2.00;;
9102;SDS011;4587;51.434;6.788;2023-07-20T10:29:41;2.07;;;1.33;;
9102;SDS011;4587;51.434;6.788;2023-07-20T10:32:07;1.93;;;1.20;;
9102;SDS011;4587;51.434;6.788;2023-07-20T10:34:34;2.10;;;1.10;;
9102;SDS011;4587;51.434;6.788;2023-07-20T10:37:00;2.75;;;1.70;;
9102;SDS011;4587;51.434;6.788;2023-07-20T10:39:26;4.47;;;2.50;;
9102;SDS011;4587;51.434;6.788;2023-07-20T10:42:09;3.70;;;2.17;;
9102;SDS011;4587;51.434;6.788;2023-07-20T10:44:38;2.73;;;1.80;;
9102;SDS011;4587;51.434;6.788;2023-07-20T10:47:11;1.77;;;1.60;;
9102;SDS011;4587;51.434;6.788;2023-07-20T10:52:22;2.87;;;1.70;;
9102;SDS011;4587;51.434;6.788;2023-07-20T10:54:48;3.83;;;1.50;;
9102;SDS011;4587;51.434;6.788;2023-07-20T10:57:30;3.22;;;1.60;;
9102;SDS011;4587;51.434;6.788;2023-07-20T11:00:09;2.17;;;1.13;;
9102;SDS011;4587;51.434;6.788;2023-07-20T11:02:48;1.87;;;1.20;;
9102;SDS011;4587;51.434;6.788;2023-07-20T11:05:57;1.67;;;1.17;;
9102;SDS011;4587;51.434;6.788;2023-07-20T11:08:06;1.10;;;1.00;;
9102;SDS011;4587;51.434;6.788;2023-07-20T11:10:35;2.00;;;0.87;;
9102;SDS011;4587;51.434;6.788;2023-07-20T11:13:17;1.07;;;0.70;;
9102;SDS011;4587;51.434;6.788;2023-07-20T11:15:53;2.83;;;0.83;;
9102;SDS011;4587;51.434;6.788;2023-07-20T11:18:28;1.17;;;0.70;;
9102;SDS011;4587;51.434;6.788;2023-07-20T11:20:54;2.45;;;0.95;;
9102;SDS011;4587;51.434;6.788;2023-07-20T11:23:20;2.13;;;1.20;;
9102;SDS011;4587;51.434;6.788;2023-07-20T11:25:46;1.53;;;1.10;;
9102;SDS011;4587;51.434;6.788;2023-07-20T11:28:11;3.20;;;1.10;;
9102;SDS011;4587;51.434;6.788;2023-07-20T11:30:38;1.80;;;1.00;;
9102;SDS011;4587;51.434;6.788;2023-07-20T11:33:04;3.30;;;1.10;;
9102;SDS011;4587;51.434;6.788;2023-07-20T11:35:30;2.08;;;1.05;;
9102;SDS011;4587;51.434;6.788;2023-07-20T11:37:56;2.63;;;1.08;;
9102;SDS011;4587;51.434;6.788;2023-07-20T11:40:22;3.23;;;1.00;;
9102;SDS011;4587;51.434;6.788;2023-07-20T11:42:47;1.70;;;0.73;;
9102;SDS011;4587;51.434;6.788;2023-07-20T11:45:15;1.40;;;0.77;;
9102;SDS011;4587;51.434;6.788;2023-07-20T11:47:44;1.70;;;0.80;;
9102;SDS011;4587;51.434;6.788;2023-07-20T11:50:10;1.60;;;1.23;;
9102;SDS011;4587;51.434;6.788;2023-07-20T11:52:38;1.08;;;0.80;;
9102;SDS011;4587;51.434;6.788;2023-07-20T11:55:05;1.00;;;0.70;;
9102;SDS011;4587;51.434;6.788;2023-07-20T11:57:32;1.17;;;0.80;;
9102;SDS011;4587;51.434;6.788;2023-07-20T12:00:00;2.83;;;0.80;;
9102;SDS011;4587;51.434;6.788;2023-07-20T12:02:29;2.88;;;0.77;;
9102;SDS011;4587;51.434;6.788;2023-07-20T12:04:55;1.95;;;0.98;;
9102;SDS011;4587;51.434;6.788;2023-07-20T12:07:22;0.97;;;0.70;;
9102;SDS011;4587;51.434;6.788;2023-07-20T12:12:34;1.10;;;0.60;;
9102;SDS011;4587;51.434;6.788;2023-07-20T12:15:15;1.73;;;0.90;;
9102;SDS011;4587;51.434;6.788;2023-07-20T12:17:44;1.38;;;0.90;;
9102;SDS011;4587;51.434;6.788;2023-07-20T12:20:11;1.58;;;0.90;;
9102;SDS011;4587;51.434;6.788;2023-07-20T12:22:40;2.80;;;0.70;;
9102;SDS011;4587;51.434;6.788;2023-07-20T12:25:06;1.60;;;0.80;;
9102;SDS011;4587;51.434;6.788;2023-07-20T12:27:35;1.33;;;0.80;;
9102;SDS011;4587;51.434;6.788;2023-07-20T12:30:06;2.58;;;0.80;;
9102;SDS011;4587;51.434;6.788;2023-07-20T12:32:32;2.90;;;0.70;;
9102;SDS011;4587;51.434;6.788;2023-07-20T12:34:58;1.73;;;0.82;;
9102;SDS011;4587;51.434;6.788;2023-07-20T12:37:25;1.17;;;0.70;;
9102;SDS011;4587;51.434;6.788;2023-07-20T12:39:51;0.63;;;0.60;;
9102;SDS011;4587;51.434;6.788;2023-07-20T12:42:17;1.13;;;0.73;;
9102;SDS011;4587;51.434;6.788;2023-07-20T12:44:43;1.10;;;0.70;;
9102;SDS011;4587;51.434;6.788;2023-07-20T12:47:08;0.60;;;0.60;;
9102;SDS011;4587;51.434;6.788;2023-07-20T12:49:34;2.10;;;0.70;;
9102;SDS011;4587;51.434;6.788;2023-07-20T12:52:00;2.60;;;0.80;;
9102;SDS011;4587;51.434;6.788;2023-07-20T12:54:25;1.47;;;0.60;;
9102;SDS011;4587;51.434;6.788;2023-07-20T12:56:51;0.80;;;0.70;;
9102;SDS011;4587;51.434;6.788;2023-07-20T12:59:16;1.20;;;0.80;;
9102;SDS011;4587;51.434;6.788;2023-07-20T13:01:42;1.08;;;0.70;;
9102;SDS011;4587;51.434;6.788;2023-07-20T13:04:09;3.53;;;0.90;;
9102;SDS011;4587;51.434;6.788;2023-07-20T13:06:35;1.17;;;0.90;;
9102;SDS011;4587;51.434;6.788;2023-07-20T13:09:01;1.58;;;0.75;;
9102;SDS011;4587;51.434;6.788;2023-07-20T13:11:27;1.50;;;0.77;;
9102;SDS011;4587;51.434;6.788;2023-07-20T13:13:52;1.27;;;0.75;;
9102;SDS011;4587;51.434;6.788;2023-07-20T13:16:18;3.50;;;0.82;;
9102;SDS011;4587;51.434;6.788;2023-07-20T13:18:43;0.93;;;0.70;;
9102;SDS011;4587;51.434;6.788;2023-07-20T13:21:09;1.00;;;0.67;;
9102;SDS011;4587;51.434;6.788;2023-07-20T13:23:38;1.00;;;0.77;;
9102;SDS011;4587;51.434;6.788;2023-07-20T13:26:04;2.78;;;0.60;;
9102;SDS011;4587;51.434;6.788;2023-07-20T13:28:30;1.30;;;0.70;;
9102;SDS011;4587;51.434;6.788;2023-07-20T13:30:56;1.08;;;0.60;;
9102;SDS011;4587;51.434;6.788;2023-07-20T13:33:21;1.33;;;0.50;;
9102;SDS011;4587;51.434;6.788;2023-07-20T13:35:47;0.60;;;0.55;;
9102;SDS011;4587;51.434;6.788;2023-07-20T13:38:12;0.90;;;0.60;;
9102;SDS011;4587;51.434;6.788;2023-07-20T13:40:38;0.77;;;0.47;;
9102;SDS011;4587;51.434;6.788;2023-07-20T13:43:04;1.30;;;0.60;;
9102;SDS011;4587;51.434;6.788;2023-07-20T13:45:29;6.00;;;0.88;;
9102;SDS011;4587;51.434;6.788;2023-07-20T13:47:55;1.48;;;1.00;;
9102;SDS011;4587;51.434;6.788;2023-07-20T13:50:20;1.83;;;0.70;;
9102;SDS011;4587;51.434;6.788;2023-07-20T13:52:46;1.57;;;0.73;;
9102;SDS011;4587;51.434;6.788;2023-07-20T13:55:12;3.20;;;1.13;;
9102;SDS011;4587;51.434;6.788;2023-07-20T13:57:38;0.97;;;0.80;;
9102;SDS011;4587;51.434;6.788;2023-07-20T14:00:03;2.50;;;1.02;;
9102;SDS011;4587;51.434;6.788;2023-07-20T14:02:29;1.63;;;1.00;;
9102;SDS011;4587;51.434;6.788;2023-07-20T14:04:55;4.13;;;0.80;;
9102;SDS011;4587;51.434;6.788;2023-07-20T14:07:21;2.67;;;0.77;;
9102;SDS011;4587;51.434;6.788;2023-07-20T14:09:47;2.85;;;0.70;;
9102;SDS011;4587;51.434;6.788;2023-07-20T14:12:13;1.90;;;0.82;;
9102;SDS011;4587;51.434;6.788;2023-07-20T14:14:39;1.47;;;0.73;;
9102;SDS011;4587;51.434;6.788;2023-07-20T14:17:06;1.30;;;0.73;;
9102;SDS011;4587;51.434;6.788;2023-07-20T14:19:32;2.28;;;0.80;;
9102;SDS011;4587;51.434;6.788;2023-07-20T14:21:57;2.58;;;1.00;;
9102;SDS011;4587;51.434;6.788;2023-07-20T14:24:24;2.35;;;0.80;;
9102;SDS011;4587;51.434;6.788;2023-07-20T14:26:53;1.90;;;0.70;;
9102;SDS011;4587;51.434;6.788;2023-07-20T14:29:19;1.27;;;0.63;;
9102;SDS011;4587;51.434;6.788;2023-07-20T14:31:45;1.15;;;0.70;;
9102;SDS011;4587;51.434;6.788;2023-07-20T14:34:15;1.40;;;0.80;;
9102;SDS011;4587;51.434;6.788;2023-07-20T14:36:41;1.05;;;0.65;;
9102;SDS011;4587;51.434;6.788;2023-07-20T14:39:07;1.73;;;0.82;;
9102;SDS011;4587;51.434;6.788;2023-07-20T14:41:32;2.55;;;0.80;;
9102;SDS011;4587;51.434;6.788;2023-07-20T14:43:58;2.50;;;0.90;;
9102;SDS011;4587;51.434;6.788;2023-07-20T14:46:23;1.20;;;0.80;;
9102;SDS011;4587;51.434;6.788;2023-07-20T14:48:49;1.40;;;0.70;;
9102;SDS011;4587;51.434;6.788;2023-07-20T14:51:16;1.77;;;0.82;;
9102;SDS011;4587;51.434;6.788;2023-07-20T14:53:42;0.88;;;0.63;;
9102;SDS011;4587;51.434;6.788;2023-07-20T14:56:08;1.48;;;0.88;;
9102;SDS011;4587;51.434;6.788;2023-07-20T14:58:34;1.75;;;0.82;;
9102;SDS011;4587;51.434;6.788;2023-07-20T15:00:59;1.67;;;0.90;;
9102;SDS011;4587;51.434;6.788;2023-07-20T15:03:25;1.33;;;0.70;;
9102;SDS011;4587;51.434;6.788;2023-07-20T15:05:50;2.75;;;0.90;;
9102;SDS011;4587;51.434;6.788;2023-07-20T15:08:17;1.83;;;1.00;;
9102;SDS011;4587;51.434;6.788;2023-07-20T15:10:44;1.58;;;0.80;;
9102;SDS011;4587;51.434;6.788;2023-07-20T15:13:11;3.10;;;0.88;;
9102;SDS011;4587;51.434;6.788;2023-07-20T15:15:37;2.95;;;0.88;;
9102;SDS011;4587;51.434;6.788;2023-07-20T15:18:03;1.10;;;0.82;;
9102;SDS011;4587;51.434;6.788;2023-07-20T15:20:28;0.82;;;0.73;;
9102;SDS011;4587;51.434;6.788;2023-07-20T15:22:56;1.05;;;0.50;;
9102;SDS011;4587;51.434;6.788;2023-07-20T15:25:22;1.05;;;0.80;;